createdAt,value
2022-09-23T00:00:17.288Z,65.49
2022-09-23T00:04:11.320Z,66.37
2022-09-23T00:08:05.316Z,64.13
2022-09-23T00:12:12.493Z,63.81
2022-09-23T00:16:20.928Z,64.04
2022-09-23T00:20:29.250Z,65.72
2022-09-23T00:24:36.305Z,66.53
2022-09-23T00:28:44.540Z,64.31
2022-09-23T00:32:54.817Z,64.16
2022-09-23T00:37:04.763Z,65.46
2022-09-23T00:41:04.021Z,65.92
2022-09-23T00:45:23.169Z,66.70
2022-09-23T00:49:31.323Z,64.40
2022-09-23T00:53:39.656Z,64.30
2022-09-23T00:57:47.827Z,64.93
2022-09-23T01:01:49.845Z,65.48
2022-09-23T01:05:58.069Z,66.72
2022-09-23T01:10:06.267Z,64.24
2022-09-23T01:14:28.359Z,63.93
2022-09-23T01:18:51.754Z,64.80
2022-09-23T01:23:08.047Z,65.86
2022-09-23T01:27:25.480Z,67.08
2022-09-23T01:31:38.381Z,64.36
2022-09-23T01:35:33.898Z,64.48
2022-09-23T01:39:50.964Z,65.36
2022-09-23T01:43:59.164Z,66.19
2022-09-23T01:47:52.739Z,67.05
2022-09-23T01:52:03.933Z,64.86
2022-09-23T01:56:12.131Z,64.34
2022-09-23T02:00:11.940Z,65.08
2022-09-23T02:03:59.886Z,66.08
2022-09-23T02:08:00.888Z,66.84
2022-09-23T02:12:12.104Z,64.43
2022-09-23T02:16:12.956Z,64.25
2022-09-23T02:20:27.160Z,65.14
2022-09-23T02:24:38.341Z,66.60
2022-09-23T02:28:52.747Z,67.16
2022-09-23T02:33:14.332Z,64.17
2022-09-23T02:37:33.378Z,64.39
2022-09-23T02:41:56.765Z,65.77
2022-09-23T02:46:13.447Z,66.44
2022-09-23T02:50:24.946Z,67.21
2022-09-23T02:54:31.900Z,64.64
2022-09-23T02:58:40.025Z,64.17
2022-09-23T03:02:39.357Z,65.08
2022-09-23T03:06:40.178Z,65.95
2022-09-23T03:10:57.377Z,67.29
2022-09-23T03:15:11.442Z,64.12
2022-09-23T03:19:03.686Z,64.05
2022-09-23T03:23:06.495Z,64.67
2022-09-23T03:27:08.175Z,65.93
2022-09-23T03:31:17.546Z,67.02
2022-09-23T03:35:25.774Z,64.46
2022-09-23T03:39:36.023Z,64.16
2022-09-23T03:43:38.951Z,64.90
2022-09-23T03:47:48.418Z,65.98
2022-09-23T03:52:02.493Z,66.93
2022-09-23T03:56:11.781Z,64.50
2022-09-23T04:00:19.886Z,64.38
2022-09-23T04:04:28.180Z,65.22
2022-09-23T04:08:22.625Z,66.88
2022-09-23T04:12:13.417Z,67.52
2022-09-23T04:19:44.083Z,64.85
2022-09-23T04:23:30.854Z,65.18
2022-09-23T04:27:40.094Z,66.71
2022-09-23T04:31:48.218Z,66.82
2022-09-23T04:35:51.115Z,64.71
2022-09-23T04:39:47.873Z,64.17
2022-09-23T04:43:28.492Z,65.10
2022-09-23T04:46:36.038Z,66.55
2022-09-23T04:50:03.845Z,67.08
2022-09-23T04:53:54.054Z,66.20
2022-09-23T04:57:47.074Z,64.63
2022-09-23T05:01:34.566Z,65.35
2022-09-23T05:05:43.910Z,66.02
2022-09-23T05:09:44.395Z,66.84
2022-09-23T05:13:10.194Z,64.65
2022-09-23T05:16:48.946Z,63.79
2022-09-23T05:20:57.139Z,64.60
2022-09-23T05:24:56.220Z,65.25
2022-09-23T05:29:07.891Z,66.77
2022-09-23T05:33:01.430Z,64.25
2022-09-23T05:37:03.385Z,64.28
2022-09-23T05:40:36.766Z,65.03
2022-09-23T05:44:16.374Z,65.48
2022-09-23T05:47:22.301Z,66.62
2022-09-23T05:50:55.005Z,64.89
2022-09-23T05:54:22.758Z,63.46
2022-09-23T05:57:34.909Z,63.80
2022-09-23T06:01:23.120Z,64.57
2022-09-23T06:05:09.322Z,64.96
2022-09-23T06:09:05.396Z,65.97
2022-09-23T06:12:55.886Z,63.41
2022-09-23T06:16:08.967Z,63.00
2022-09-23T06:19:16.015Z,63.76
2022-09-23T06:22:42.878Z,64.04
2022-09-23T06:26:23.255Z,65.15
2022-09-23T06:30:31.414Z,65.45
2022-09-23T06:33:34.740Z,63.19
2022-09-23T06:36:55.386Z,62.92
2022-09-23T06:40:14.365Z,62.94
2022-09-23T06:43:43.254Z,64.37
2022-09-23T06:46:57.532Z,65.25
2022-09-23T06:50:20.963Z,66.28
2022-09-23T06:53:43.956Z,64.39
2022-09-23T06:56:39.723Z,63.24
2022-09-23T06:59:37.432Z,63.56
2022-09-23T07:03:48.566Z,64.25
2022-09-23T07:07:50.658Z,65.13
2022-09-23T07:11:25.249Z,66.00
2022-09-23T07:15:01.910Z,64.19
2022-09-23T07:18:25.907Z,63.15
2022-09-23T07:22:32.929Z,63.86
2022-09-23T07:26:19.032Z,64.83
2022-09-23T07:30:03.718Z,65.27
2022-09-23T07:34:11.931Z,66.26
2022-09-23T07:37:32.186Z,63.97
2022-09-23T07:41:24.903Z,62.80
2022-09-23T07:45:34.194Z,63.33
2022-09-23T07:49:08.783Z,63.64
2022-09-23T07:53:03.031Z,64.84
2022-09-23T07:56:33.450Z,65.19
2022-09-23T08:00:16.124Z,63.19
2022-09-23T08:04:24.282Z,62.72
2022-09-23T08:08:07.981Z,62.40
2022-09-23T08:11:50.888Z,63.39
2022-09-23T08:15:59.889Z,64.32
2022-09-23T08:20:08.050Z,64.45
2022-09-23T08:24:06.897Z,60.37
2022-09-23T08:28:04.973Z,59.69
2022-09-23T08:32:04.471Z,60.23
2022-09-23T08:35:54.532Z,59.97
2022-09-23T08:39:43.726Z,60.39
2022-09-23T08:43:58.139Z,61.65
2022-09-23T08:48:10.811Z,61.95
2022-09-23T08:52:17.007Z,58.72
2022-09-23T08:56:40.648Z,58.23
2022-09-23T09:00:48.967Z,59.43
2022-09-23T09:05:18.233Z,59.84
2022-09-23T09:09:26.440Z,60.28
2022-09-23T09:13:06.181Z,60.69
2022-09-23T09:16:58.474Z,56.74
2022-09-23T09:20:45.269Z,56.78
2022-09-23T09:24:17.199Z,57.50
2022-09-23T09:27:27.191Z,58.05
2022-09-23T09:31:36.410Z,57.87
2022-09-23T09:35:36.866Z,58.94
2022-09-23T09:39:27.488Z,60.79
2022-09-23T09:42:31.451Z,62.59
2022-09-23T09:46:11.113Z,61.59
2022-09-23T09:49:55.768Z,60.21
2022-09-23T09:54:02.721Z,60.57
2022-09-23T09:56:57.673Z,60.89
2022-09-23T10:00:29.508Z,61.44
2022-09-23T10:04:01.839Z,62.29
2022-09-23T10:07:01.602Z,63.41
2022-09-23T10:09:44.460Z,60.62
2022-09-23T10:12:51.114Z,59.62
2022-09-23T10:16:33.901Z,60.31
2022-09-23T10:20:10.784Z,61.38
2022-09-23T10:23:38.928Z,62.25
2022-09-23T10:26:32.973Z,63.67
2022-09-23T10:29:50.278Z,61.22
2022-09-23T10:33:12.151Z,60.23
2022-09-23T10:36:28.834Z,60.67
2022-09-23T10:39:53.443Z,60.28
2022-09-23T10:43:48.798Z,61.34
2022-09-23T10:47:43.145Z,62.79
2022-09-23T10:51:08.578Z,63.36
2022-09-23T10:53:49.413Z,59.55
2022-09-23T10:57:25.420Z,58.50
2022-09-23T11:00:27.599Z,57.55
2022-09-23T11:03:30.623Z,58.74
2022-09-23T11:07:08.453Z,60.08
2022-09-23T11:10:44.918Z,59.70
2022-09-23T11:14:15.919Z,60.83
2022-09-23T11:17:42.849Z,58.69
2022-09-23T11:21:12.510Z,58.99
2022-09-23T11:24:02.102Z,57.94
2022-09-23T11:27:10.301Z,58.05
2022-09-23T11:29:59.360Z,58.50
2022-09-23T11:33:07.277Z,59.24
2022-09-23T11:36:02.915Z,59.47
2022-09-23T11:38:52.218Z,59.04
2022-09-23T11:41:28.268Z,57.55
2022-09-23T11:44:37.213Z,56.94
2022-09-23T11:47:11.289Z,57.02
2022-09-23T11:49:49.581Z,56.14
2022-09-23T11:52:42.112Z,56.43
2022-09-23T11:55:56.324Z,58.70
2022-09-23T11:58:52.147Z,58.46
2022-09-23T12:02:12.401Z,56.38
2022-09-23T12:05:22.141Z,57.18
2022-09-23T12:07:58.413Z,56.78
2022-09-23T12:11:24.676Z,57.51
2022-09-23T12:14:51.365Z,57.42
2022-09-23T12:18:22.235Z,58.95
2022-09-23T12:21:50.665Z,60.29
2022-09-23T12:25:17.835Z,58.01
2022-09-23T12:28:45.110Z,56.05
2022-09-23T12:31:48.308Z,56.40
2022-09-23T12:35:03.538Z,56.98
2022-09-23T12:38:04.143Z,57.55
2022-09-23T12:40:44.895Z,58.27
2022-09-23T12:44:15.235Z,57.82
2022-09-23T12:47:25.910Z,56.74
2022-09-23T12:49:59.384Z,57.17
2022-09-23T12:53:55.377Z,57.13
2022-09-23T12:56:49.626Z,57.81
2022-09-23T12:59:48.662Z,58.54
2022-09-23T13:03:03.873Z,58.63
2022-09-23T13:06:19.867Z,59.05
2022-09-23T13:09:32.213Z,56.02
2022-09-23T13:12:29.781Z,54.10
2022-09-23T13:15:18.072Z,54.63
2022-09-23T13:18:15.130Z,54.71
2022-09-23T13:20:53.463Z,55.42
2022-09-23T13:24:04.140Z,55.82
2022-09-23T13:27:01.009Z,54.96
2022-09-23T13:30:26.523Z,56.22
2022-09-23T13:33:27.581Z,56.93
2022-09-23T13:37:22.153Z,57.68
2022-09-23T13:41:23.794Z,57.70
2022-09-23T13:45:32.000Z,56.66
2022-09-23T13:48:36.239Z,57.38
2022-09-23T13:52:09.349Z,58.00
2022-09-23T13:55:33.116Z,57.48
2022-09-23T13:58:50.448Z,56.41
2022-09-23T14:02:47.462Z,57.38
2022-09-23T14:06:17.996Z,58.06
2022-09-23T14:09:32.162Z,58.32
2022-09-23T14:12:48.574Z,57.18
2022-09-23T14:15:41.163Z,56.96
2022-09-23T14:18:42.189Z,58.94
2022-09-23T14:21:56.615Z,58.58
2022-09-23T14:25:03.522Z,59.19
2022-09-23T14:27:48.752Z,57.82
2022-09-23T14:30:39.282Z,55.54
2022-09-23T14:33:18.568Z,55.64
2022-09-23T14:36:25.760Z,55.95
2022-09-23T14:39:37.114Z,56.62
2022-09-23T14:42:17.726Z,57.07
2022-09-23T14:45:22.679Z,58.37
2022-09-23T14:48:38.155Z,59.00
2022-09-23T14:51:36.445Z,59.60
2022-09-23T14:55:12.146Z,57.57
2022-09-23T14:58:41.734Z,58.45
2022-09-23T15:02:48.449Z,60.41
2022-09-23T15:06:00.022Z,60.38
2022-09-23T15:09:20.078Z,58.82
2022-09-23T15:12:50.875Z,59.06
2022-09-23T15:16:23.351Z,59.80
2022-09-23T15:19:46.711Z,61.29
2022-09-23T15:23:11.591Z,61.95
2022-09-23T15:27:19.729Z,63.57
2022-09-23T15:30:44.822Z,63.95
2022-09-23T15:34:18.488Z,62.00
2022-09-23T15:37:12.697Z,61.07
2022-09-23T15:41:03.704Z,61.12
2022-09-23T15:44:53.091Z,62.80
2022-09-23T15:48:41.252Z,63.46
2022-09-23T15:52:12.782Z,64.49
2022-09-23T15:55:19.273Z,63.02
2022-09-23T15:58:21.581Z,62.03
2022-09-23T16:02:04.048Z,62.00
2022-09-23T16:06:10.573Z,63.68
2022-09-23T16:09:44.148Z,64.67
2022-09-23T16:13:27.744Z,65.61
2022-09-23T16:17:07.749Z,63.57
2022-09-23T16:20:17.823Z,62.76
2022-09-23T16:23:55.553Z,63.10
2022-09-23T16:27:51.870Z,64.05
2022-09-23T16:31:51.472Z,65.08
2022-09-23T16:35:47.104Z,66.11
2022-09-23T16:39:48.673Z,63.28
2022-09-23T16:43:16.790Z,62.79
2022-09-23T16:47:12.282Z,63.42
2022-09-23T16:50:32.757Z,63.78
2022-09-23T16:53:59.351Z,64.96
2022-09-23T16:57:33.827Z,65.83
2022-09-23T17:00:35.861Z,64.26
2022-09-23T17:03:51.598Z,63.15
2022-09-23T17:07:16.062Z,63.56
2022-09-23T17:10:15.335Z,64.76
2022-09-23T17:13:38.174Z,65.32
2022-09-23T17:17:20.554Z,66.15
2022-09-23T17:20:36.650Z,64.10
2022-09-23T17:23:38.710Z,63.34
2022-09-23T17:27:28.208Z,63.63
2022-09-23T17:31:26.791Z,64.67
2022-09-23T17:35:01.859Z,65.60
2022-09-23T17:38:34.526Z,65.99
2022-09-23T17:41:21.596Z,64.76
2022-09-23T17:44:49.046Z,63.50
2022-09-23T17:48:27.385Z,63.23
2022-09-23T17:52:33.348Z,64.46
2022-09-23T17:56:11.582Z,65.73
2022-09-23T17:59:53.678Z,66.46
2022-09-23T18:03:03.148Z,63.94
2022-09-23T18:06:21.676Z,62.51
2022-09-23T18:10:16.895Z,63.20
2022-09-23T18:14:09.336Z,64.49
2022-09-23T18:17:41.966Z,65.58
2022-09-23T18:21:25.777Z,66.57
2022-09-23T18:25:38.660Z,64.21
2022-09-23T18:29:38.999Z,63.92
2022-09-23T18:32:50.032Z,64.85
2022-09-23T18:36:40.778Z,65.15
2022-09-23T18:40:49.925Z,65.93
2022-09-23T18:44:40.512Z,66.97
2022-09-23T18:48:30.428Z,64.15
2022-09-23T18:52:06.920Z,63.69
2022-09-23T18:56:06.836Z,64.56
2022-09-23T19:00:07.627Z,65.20
2022-09-23T19:04:06.691Z,66.48
2022-09-23T19:07:32.630Z,67.23
2022-09-23T19:11:01.383Z,64.75
2022-09-23T19:14:55.843Z,63.50
2022-09-23T19:18:44.175Z,63.75
2022-09-23T19:22:52.407Z,64.63
2022-09-23T19:27:03.704Z,65.68
2022-09-23T19:31:05.391Z,66.17
2022-09-23T19:35:01.547Z,63.88
2022-09-23T19:38:49.858Z,63.65
2022-09-23T19:42:48.054Z,64.09
2022-09-23T19:46:57.305Z,65.02
2022-09-23T19:50:45.887Z,66.56
2022-09-23T19:54:47.042Z,63.63
2022-09-23T19:58:37.829Z,63.75
2022-09-23T20:02:47.872Z,65.14
2022-09-23T20:06:46.155Z,66.16
2022-09-23T20:10:28.560Z,66.97
2022-09-23T20:14:06.746Z,64.22
2022-09-23T20:17:40.269Z,63.61
2022-09-23T20:21:04.075Z,64.22
2022-09-23T20:24:42.406Z,64.95
2022-09-23T20:28:21.106Z,66.15
2022-09-23T20:31:42.277Z,67.32
2022-09-23T20:35:19.138Z,64.88
2022-09-23T20:38:50.158Z,64.22
2022-09-23T20:42:58.331Z,64.16
2022-09-23T20:46:48.291Z,65.63
2022-09-23T20:50:30.257Z,66.35
2022-09-23T20:53:57.873Z,66.72
2022-09-23T20:57:57.135Z,64.93
2022-09-23T21:01:48.497Z,64.16
2022-09-23T21:05:27.271Z,64.27
2022-09-23T21:09:02.792Z,64.62
2022-09-23T21:12:45.319Z,65.74
2022-09-23T21:16:34.724Z,64.32
2022-09-23T21:19:41.667Z,63.61
2022-09-23T21:23:02.760Z,64.13
2022-09-23T21:26:28.271Z,64.75
2022-09-23T21:29:41.318Z,65.63
2022-09-23T21:33:28.427Z,66.70
2022-09-23T21:36:40.455Z,64.81
2022-09-23T21:40:27.107Z,63.62
2022-09-23T21:43:42.476Z,63.79
2022-09-23T21:47:25.871Z,64.46
2022-09-23T21:51:46.041Z,65.04
2022-09-23T21:55:47.388Z,65.91
2022-09-23T21:59:37.226Z,63.66
2022-09-23T22:03:16.363Z,63.09
2022-09-23T22:06:42.047Z,63.65
2022-09-23T22:09:47.999Z,64.62
2022-09-23T22:13:49.799Z,66.10
2022-09-23T22:17:07.298Z,64.08
2022-09-23T22:20:28.531Z,63.11
2022-09-23T22:23:49.421Z,63.57
2022-09-23T22:26:34.511Z,64.41
2022-09-23T22:30:30.786Z,65.07
2022-09-23T22:34:01.153Z,66.26
2022-09-23T22:38:02.410Z,63.58
2022-09-23T22:41:54.571Z,62.79
2022-09-23T22:45:43.483Z,63.21
2022-09-23T22:49:10.580Z,64.05
2022-09-23T22:52:23.007Z,64.77
2022-09-23T22:56:21.678Z,65.78
2022-09-23T23:00:12.890Z,63.52
2022-09-23T23:04:20.062Z,63.14
2022-09-23T23:08:22.157Z,64.16
2022-09-23T23:12:30.303Z,65.56
2022-09-23T23:16:44.451Z,66.53
2022-09-23T23:20:51.147Z,66.62
2022-09-23T23:24:59.283Z,64.35
2022-09-23T23:28:31.291Z,64.22
2022-09-23T23:32:38.370Z,64.64
2022-09-23T23:36:48.251Z,65.97
2022-09-23T23:40:56.614Z,67.08
2022-09-23T23:44:50.669Z,64.41
2022-09-23T23:48:58.822Z,63.75
2022-09-23T23:53:05.571Z,64.59
2022-09-23T23:56:57.613Z,65.75
